createdAt,value
2018-04-19T00:02:15.415Z,101636.76
2018-04-19T00:04:43.071Z,101637.20
2018-04-19T00:07:10.715Z,101634.16
2018-04-19T00:09:38.378Z,101630.23
2018-04-19T00:12:05.978Z,101635.14
2018-04-19T00:14:33.637Z,101636.10
2018-04-19T00:17:01.259Z,101637.66
2018-04-19T00:19:28.949Z,101631.31
2018-04-19T00:21:56.571Z,101626.42
2018-04-19T00:24:24.241Z,101629.03
2018-04-19T00:26:51.895Z,101624.67
2018-04-19T00:29:19.654Z,101629.09
2018-04-19T00:31:47.329Z,101627.75
2018-04-19T00:34:14.999Z,101623.30
2018-04-19T00:36:42.614Z,101622.61
2018-04-19T00:39:10.282Z,101619.92
2018-04-19T00:41:37.890Z,101618.16
2018-04-19T00:44:05.557Z,101615.68
2018-04-19T00:46:33.298Z,101610.84
2018-04-19T00:49:00.926Z,101610.42
2018-04-19T00:51:28.591Z,101617.02
2018-04-19T00:53:56.231Z,101612.77
2018-04-19T00:56:23.880Z,101616.63
2018-04-19T00:58:51.515Z,101610.97
2018-04-19T01:01:19.168Z,101609.75
2018-04-19T01:03:46.801Z,101614.13
2018-04-19T01:06:14.487Z,101608.93
2018-04-19T01:08:42.100Z,101610.48
2018-04-19T01:11:09.758Z,101609.64
2018-04-19T01:13:37.385Z,101607.45
2018-04-19T01:16:05.052Z,101602.18
2018-04-19T01:18:32.667Z,101612.69
2018-04-19T01:21:00.402Z,101611.55
2018-04-19T01:23:28.006Z,101607.84
2018-04-19T01:25:55.654Z,101605.81
2018-04-19T01:28:23.308Z,101606.16
2018-04-19T01:30:50.960Z,101609.63
2018-04-19T01:33:18.589Z,101605.17
2018-04-19T01:35:58.088Z,101610.41
2018-04-19T01:38:25.696Z,101614.83
2018-04-19T01:40:53.347Z,101614.17
2018-04-19T01:43:21.027Z,101611.81
2018-04-19T01:45:48.700Z,101612.70
2018-04-19T01:48:16.307Z,101618.77
2018-04-19T01:50:43.971Z,101615.44
2018-04-19T01:53:11.587Z,101618.62
2018-04-19T01:55:39.250Z,101620.88
2018-04-19T01:58:06.881Z,101619.41
2018-04-19T02:00:34.548Z,101622.91
2018-04-19T02:03:02.154Z,101624.44
2018-04-19T02:05:29.817Z,101623.78
2018-04-19T02:07:57.434Z,101622.94
2018-04-19T02:10:25.091Z,101626.05
2018-04-19T02:12:52.699Z,101628.68
2018-04-19T02:15:20.367Z,101631.41
2018-04-19T02:17:47.992Z,101625.38
2018-04-19T02:20:15.655Z,101625.94
2018-04-19T02:22:43.279Z,101623.63
2018-04-19T02:25:10.935Z,101623.43
2018-04-19T02:27:38.571Z,101620.52
2018-04-19T02:30:06.224Z,101621.86
2018-04-19T02:32:33.828Z,101622.30
2018-04-19T02:35:01.607Z,101620.29
2018-04-19T02:37:29.231Z,101609.08
2018-04-19T02:39:56.887Z,101614.28
2018-04-19T02:42:24.504Z,101609.44
2018-04-19T02:44:52.163Z,101605.05
2018-04-19T02:47:19.768Z,101599.10
2018-04-19T02:49:47.431Z,101599.59
2018-04-19T02:52:15.055Z,101604.38
2018-04-19T02:54:42.715Z,101602.22
2018-04-19T02:57:10.325Z,101608.08
2018-04-19T02:59:38.002Z,101615.01
2018-04-19T03:02:05.616Z,101621.50
2018-04-19T03:04:33.263Z,101617.23
2018-04-19T03:07:00.920Z,101615.23
2018-04-19T03:09:28.558Z,101618.24
2018-04-19T03:11:56.237Z,101615.94
2018-04-19T03:14:23.847Z,101611.38
2018-04-19T03:16:51.504Z,101608.39
2018-04-19T03:19:19.128Z,101613.77
2018-04-19T03:21:46.795Z,101616.70
2018-04-19T03:24:14.402Z,101611.12
2018-04-19T03:26:42.087Z,101607.75
2018-04-19T03:29:09.715Z,101614.56
2018-04-19T03:31:37.380Z,101614.08
2018-04-19T03:34:05.051Z,101613.65
2018-04-19T03:36:32.719Z,101612.73
2018-04-19T03:39:00.349Z,101608.75
2018-04-19T03:41:28.050Z,101609.94
2018-04-19T03:43:55.658Z,101610.36
2018-04-19T03:46:23.315Z,101611.66
2018-04-19T03:48:50.969Z,101609.30
2018-04-19T03:51:18.620Z,101612.02
2018-04-19T03:53:46.270Z,101609.34
2018-04-19T03:56:13.998Z,101601.16
2018-04-19T03:58:41.618Z,101603.47
2018-04-19T04:01:09.283Z,101600.92
2018-04-19T04:03:36.907Z,101601.33
2018-04-19T04:06:04.621Z,101602.13
2018-04-19T04:08:32.234Z,101597.99
2018-04-19T04:10:59.882Z,101598.59
2018-04-19T04:13:27.511Z,101596.67
2018-04-19T04:15:55.171Z,101601.35
2018-04-19T04:18:34.699Z,101593.61
2018-04-19T04:21:14.967Z,101599.28
2018-04-19T04:23:52.473Z,101598.97
2018-04-19T04:26:20.145Z,101599.83
2018-04-19T04:28:47.769Z,101595.27
2018-04-19T04:31:15.503Z,101599.59
2018-04-19T04:33:43.112Z,101598.25
2018-04-19T04:36:10.794Z,101596.96
2018-04-19T04:38:38.411Z,101595.80
2018-04-19T04:41:06.103Z,101601.20
2018-04-19T04:43:33.731Z,101595.64
2018-04-19T04:46:01.392Z,101606.38
2018-04-19T04:48:29.032Z,101607.03
2018-04-19T04:50:56.751Z,101603.50
2018-04-19T04:53:24.417Z,101603.22
2018-04-19T04:55:52.080Z,101606.84
2018-04-19T04:58:19.727Z,101598.25
2018-04-19T05:00:47.396Z,101604.60
2018-04-19T05:03:15.006Z,101612.80
2018-04-19T05:05:42.678Z,101606.45
2018-04-19T05:08:10.331Z,101606.31
2018-04-19T05:10:37.991Z,101619.74
2018-04-19T05:13:05.620Z,101613.15
2018-04-19T05:15:33.391Z,101608.12
2018-04-19T05:18:01.014Z,101612.05
2018-04-19T05:20:28.675Z,101606.55
2018-04-19T05:22:56.283Z,101609.06
2018-04-19T05:25:23.890Z,101614.38
2018-04-19T05:27:51.550Z,101611.61
2018-04-19T05:30:19.197Z,101621.11
2018-04-19T05:32:46.895Z,101621.84
2018-04-19T05:35:14.519Z,101622.20
2018-04-19T05:37:42.422Z,101622.55
2018-04-19T05:40:10.085Z,101626.20
2018-04-19T05:42:37.803Z,101625.64
2018-04-19T05:45:05.409Z,101624.32
2018-04-19T05:47:33.080Z,101624.82
2018-04-19T05:50:00.700Z,101628.38
2018-04-19T05:52:28.431Z,101630.06
2018-04-19T05:54:56.072Z,101636.45
2018-04-19T05:57:23.787Z,101636.75
2018-04-19T05:59:51.423Z,101639.42
2018-04-19T06:02:19.194Z,101644.52
2018-04-19T06:04:46.864Z,101638.48
2018-04-19T06:07:14.531Z,101633.50
2018-04-19T06:09:42.143Z,101631.05
2018-04-19T06:12:09.926Z,101635.14
2018-04-19T06:14:37.550Z,101625.89
2018-04-19T06:17:05.245Z,101631.88
2018-04-19T06:19:32.930Z,101627.14
2018-04-19T06:22:00.619Z,101629.94
2018-04-19T06:24:28.234Z,101624.02
2018-04-19T06:26:55.895Z,101623.97
2018-04-19T06:29:23.510Z,101627.00
2018-04-19T06:31:51.172Z,101626.58
2018-04-19T06:34:18.780Z,101623.73
2018-04-19T06:36:46.435Z,101627.47
2018-04-19T06:39:14.054Z,101634.17
2018-04-19T06:41:41.710Z,101635.02
2018-04-19T06:44:09.364Z,101632.95
2018-04-19T06:46:37.090Z,101639.22
2018-04-19T06:49:04.740Z,101646.34
2018-04-19T06:51:32.402Z,101643.55
2018-04-19T06:54:00.049Z,101641.09
2018-04-19T06:56:27.704Z,101643.31
2018-04-19T06:58:55.328Z,101646.27
2018-04-19T07:01:22.990Z,101641.89
2018-04-19T07:03:50.607Z,101640.52
2018-04-19T07:06:18.271Z,101637.86
2018-04-19T07:08:45.902Z,101634.28
2018-04-19T07:11:13.548Z,101641.62
2018-04-19T07:13:41.162Z,101635.11
2018-04-19T07:16:08.810Z,101632.38
2018-04-19T07:18:36.419Z,101635.34
2018-04-19T07:21:04.087Z,101635.47
2018-04-19T07:23:31.727Z,101624.61
2018-04-19T07:25:59.388Z,101640.98
2018-04-19T07:28:27.000Z,101633.84
2018-04-19T07:30:54.715Z,101632.70
2018-04-19T07:33:22.353Z,101627.66
2018-04-19T07:35:50.093Z,101624.72
2018-04-19T07:38:17.957Z,101627.83
2018-04-19T07:40:45.722Z,101629.86
2018-04-19T07:43:13.384Z,101624.65
2018-04-19T07:45:41.148Z,101631.42
2018-04-19T07:48:08.855Z,101624.35
2018-04-19T07:50:36.569Z,101620.61
2018-04-19T07:53:04.513Z,101616.02
2018-04-19T07:55:32.307Z,101616.35
2018-04-19T07:58:00.175Z,101619.94
2018-04-19T08:00:27.938Z,101626.98
2018-04-19T08:02:55.704Z,101619.69
2018-04-19T08:05:23.481Z,101619.42
2018-04-19T08:07:51.239Z,101619.16
2018-04-19T08:10:19.005Z,101621.47
2018-04-19T08:12:46.821Z,101616.25
2018-04-19T08:15:14.629Z,101621.77
2018-04-19T08:17:42.496Z,101617.77
2018-04-19T08:20:10.236Z,101621.26
2018-04-19T08:22:38.028Z,101618.56
2018-04-19T08:25:05.789Z,101616.26
2018-04-19T08:27:33.657Z,101619.06
2018-04-19T08:30:01.420Z,101619.50
2018-04-19T08:32:29.235Z,101618.00
2018-04-19T08:34:57.056Z,101613.50
2018-04-19T08:37:24.920Z,101615.05
2018-04-19T08:39:52.684Z,101616.75
2018-04-19T08:42:20.562Z,101618.19
2018-04-19T08:44:48.314Z,101621.67
2018-04-19T08:47:16.077Z,101623.86
2018-04-19T08:49:43.801Z,101634.70
2018-04-19T08:52:11.710Z,101626.00
2018-04-19T08:54:39.374Z,101623.28
2018-04-19T08:57:07.133Z,101626.74
2018-04-19T08:59:34.995Z,101618.97
2018-04-19T09:02:02.665Z,101619.94
2018-04-19T09:04:30.341Z,101618.83
2018-04-19T09:06:58.158Z,101621.56
2018-04-19T09:09:25.972Z,101626.73
2018-04-19T09:11:53.838Z,101629.16
2018-04-19T09:14:21.698Z,101627.63
2018-04-19T09:16:49.422Z,101635.89
2018-04-19T09:19:17.230Z,101633.52
2018-04-19T09:21:44.948Z,101637.91
2018-04-19T09:24:12.692Z,101635.12
2018-04-19T09:26:40.518Z,101631.53
2018-04-19T09:29:08.383Z,101639.38
2018-04-19T09:31:36.151Z,101636.35
2018-04-19T09:34:03.960Z,101630.36
2018-04-19T09:36:31.793Z,101632.47
2018-04-19T09:38:59.654Z,101634.86
2018-04-19T09:41:27.410Z,101631.33
2018-04-19T09:43:55.278Z,101628.42
2018-04-19T09:46:22.939Z,101636.66
2018-04-19T09:48:50.778Z,101627.78
2018-04-19T09:51:23.592Z,101627.72
2018-04-19T09:53:51.611Z,101628.69
2018-04-19T09:56:19.423Z,101621.53
2018-04-19T09:58:51.183Z,101620.08
2018-04-19T10:01:18.867Z,101619.07
2018-04-19T10:03:46.711Z,101617.96
2018-04-19T10:06:14.608Z,101612.45
2018-04-19T10:08:42.445Z,101618.14
2018-04-19T10:11:10.168Z,101613.92
2018-04-19T10:13:37.938Z,101610.51
2018-04-19T10:16:05.668Z,101613.86
2018-04-19T10:18:33.505Z,101615.80
2018-04-19T10:21:01.266Z,101609.42
2018-04-19T10:23:29.036Z,101608.09
2018-04-19T10:25:56.794Z,101610.77
2018-04-19T10:28:24.516Z,101600.95
2018-04-19T10:30:52.287Z,101593.27
2018-04-19T10:33:20.090Z,101590.66
2018-04-19T10:35:47.957Z,101597.44
2018-04-19T10:38:15.694Z,101587.21
2018-04-19T10:40:43.588Z,101587.93
2018-04-19T10:43:11.455Z,101591.34
2018-04-19T10:45:39.284Z,101585.83
2018-04-19T10:48:06.985Z,101585.56
2018-04-19T10:50:34.763Z,101576.39
2018-04-19T10:53:02.593Z,101579.89
2018-04-19T10:55:30.486Z,101575.17
2018-04-19T10:57:58.260Z,101576.21
2018-04-19T11:00:26.144Z,101572.97
2018-04-19T11:02:53.981Z,101565.00
2018-04-19T11:05:21.848Z,101569.37
2018-04-19T11:07:49.612Z,101567.70
2018-04-19T11:10:17.443Z,101562.03
2018-04-19T11:12:45.142Z,101561.66
2018-04-19T11:15:13.006Z,101559.30
2018-04-19T11:17:40.771Z,101557.16
2018-04-19T11:20:08.639Z,101549.63
2018-04-19T11:22:36.418Z,101553.39
2018-04-19T11:25:04.180Z,101555.08
2018-04-19T11:27:32.040Z,101548.13
2018-04-19T11:29:59.901Z,101551.53
2018-04-19T11:32:27.666Z,101550.42
2018-04-19T11:34:55.329Z,101550.39
2018-04-19T11:37:23.193Z,101540.27
2018-04-19T11:39:50.863Z,101536.98
2018-04-19T11:42:18.726Z,101534.48
2018-04-19T11:44:46.385Z,101534.91
2018-04-19T11:47:14.251Z,101531.57
2018-04-19T11:49:41.964Z,101527.09
2018-04-19T11:52:09.674Z,101523.03
2018-04-19T11:54:37.394Z,101520.26
2018-04-19T11:57:05.515Z,101517.70
2018-04-19T11:59:33.383Z,101511.78
2018-04-19T12:02:01.159Z,101515.75
2018-04-19T12:04:28.912Z,101511.62
2018-04-19T12:06:56.574Z,101507.65
2018-04-19T12:09:24.321Z,101501.53
2018-04-19T12:11:52.001Z,101493.05
2018-04-19T12:14:19.802Z,101502.56
2018-04-19T12:16:47.427Z,101490.58
2018-04-19T12:19:15.241Z,101493.41
2018-04-19T12:21:43.162Z,101493.19
2018-04-19T12:24:10.927Z,101495.30
2018-04-19T12:26:39.820Z,101488.91
2018-04-19T12:29:07.690Z,101490.79
2018-04-19T12:31:35.448Z,101488.11
2018-04-19T12:34:03.628Z,101480.77
2018-04-19T12:36:31.486Z,101476.75
2018-04-19T12:38:59.358Z,101477.59
2018-04-19T12:41:27.432Z,101472.47
2018-04-19T12:43:55.988Z,101472.92
2018-04-19T12:46:23.741Z,101472.19
2018-04-19T12:48:51.642Z,101468.09
2018-04-19T12:51:19.304Z,101471.91
2018-04-19T12:53:47.172Z,101463.76
2018-04-19T12:56:14.903Z,101459.56
2018-04-19T12:58:42.642Z,101451.77
2018-04-19T13:01:10.258Z,101450.22
2018-04-19T13:03:37.977Z,101445.02
2018-04-19T13:06:05.711Z,101444.59
2018-04-19T13:08:33.669Z,101446.13
2018-04-19T13:11:01.511Z,101438.91
2018-04-19T13:13:29.291Z,101432.57
2018-04-19T13:15:57.052Z,101432.12
2018-04-19T13:18:24.917Z,101430.94
2018-04-19T13:20:52.685Z,101428.17
2018-04-19T13:23:20.552Z,101424.84
2018-04-19T13:25:48.354Z,101419.77
2018-04-19T13:28:16.181Z,101421.64
2018-04-19T13:30:43.945Z,101414.72
2018-04-19T13:33:11.812Z,101405.57
2018-04-19T13:35:39.552Z,101408.25
2018-04-19T13:38:07.343Z,101404.44
2018-04-19T13:40:35.106Z,101397.47
2018-04-19T13:43:02.871Z,101396.28
2018-04-19T13:45:30.599Z,101394.61
2018-04-19T13:47:58.399Z,101391.34
2018-04-19T13:50:26.071Z,101386.66
2018-04-19T13:52:53.719Z,101381.00
2018-04-19T13:55:21.318Z,101379.92
2018-04-19T13:57:48.982Z,101377.05
2018-04-19T14:00:16.604Z,101369.39
2018-04-19T14:02:44.259Z,101367.52
2018-04-19T14:05:11.880Z,101364.31
2018-04-19T14:07:39.539Z,101358.87
2018-04-19T14:10:07.184Z,101356.72
2018-04-19T14:12:34.890Z,101356.47
2018-04-19T14:15:02.524Z,101359.09
2018-04-19T14:17:30.211Z,101350.38
2018-04-19T14:19:58.031Z,101347.42
2018-04-19T14:22:25.667Z,101348.73
2018-04-19T14:24:53.343Z,101346.92
2018-04-19T14:27:20.963Z,101343.59
2018-04-19T14:29:48.610Z,101348.00
2018-04-19T14:32:16.223Z,101344.45
2018-04-19T14:34:43.876Z,101339.13
2018-04-19T14:37:11.487Z,101336.44
2018-04-19T14:39:39.125Z,101329.80
2018-04-19T14:42:06.765Z,101331.88
2018-04-19T14:44:34.407Z,101325.14
2018-04-19T14:47:02.033Z,101325.58
2018-04-19T14:49:29.685Z,101323.49
2018-04-19T14:51:57.290Z,101321.59
2018-04-19T14:54:24.968Z,101312.34
2018-04-19T14:56:52.581Z,101314.14
2018-04-19T14:59:20.282Z,101309.23
2018-04-19T15:01:47.908Z,101310.09
2018-04-19T15:04:15.571Z,101306.96
2018-04-19T15:06:43.175Z,101302.48
2018-04-19T15:09:11.043Z,101298.13
2018-04-19T15:11:38.913Z,101299.38
2018-04-19T15:14:06.783Z,101302.48
2018-04-19T15:16:34.515Z,101293.93
2018-04-19T15:19:02.305Z,101300.43
2018-04-19T15:21:30.273Z,101292.96
2018-04-19T15:23:58.113Z,101294.80
2018-04-19T15:26:25.906Z,101288.13
2018-04-19T15:28:53.724Z,101283.87
2018-04-19T15:31:21.455Z,101285.13
2018-04-19T15:33:49.302Z,101280.97
2018-04-19T15:36:17.040Z,101277.50
2018-04-19T15:38:44.831Z,101282.00
2018-04-19T15:41:12.680Z,101281.56
2018-04-19T15:43:40.427Z,101273.85
2018-04-19T15:46:08.229Z,101264.02
2018-04-19T15:48:35.995Z,101257.01
2018-04-19T15:51:03.605Z,101256.60
2018-04-19T15:53:31.254Z,101268.85
2018-04-19T15:55:58.889Z,101267.06
2018-04-19T15:58:26.743Z,101264.95
2018-04-19T16:00:54.509Z,101259.45
2018-04-19T16:03:22.378Z,101261.16
2018-04-19T16:05:50.140Z,101263.59
2018-04-19T16:08:18.026Z,101262.03
2018-04-19T16:10:45.874Z,101261.72
2018-04-19T16:13:13.849Z,101258.11
2018-04-19T16:15:41.607Z,101261.19
2018-04-19T16:18:09.582Z,101258.69
2018-04-19T16:20:37.334Z,101260.95
2018-04-19T16:23:05.102Z,101255.81
2018-04-19T16:25:32.974Z,101252.99
2018-04-19T16:28:00.735Z,101248.80
2018-04-19T16:30:28.501Z,101253.44
2018-04-19T16:32:56.184Z,101244.81
2018-04-19T16:35:24.031Z,101248.69
2018-04-19T16:37:51.897Z,101247.53
2018-04-19T16:40:19.660Z,101246.18
2018-04-19T16:42:47.536Z,101242.52
2018-04-19T16:45:15.393Z,101246.18
2018-04-19T16:47:43.156Z,101242.22
2018-04-19T16:50:11.047Z,101246.98
2018-04-19T16:52:38.788Z,101245.45
2018-04-19T16:55:06.450Z,101245.16
2018-04-19T16:57:34.071Z,101241.37
2018-04-19T17:00:01.719Z,101242.12
2018-04-19T17:02:29.441Z,101244.52
2018-04-19T17:04:57.304Z,101237.02
2018-04-19T17:07:25.069Z,101236.77
2018-04-19T17:09:52.835Z,101234.23
2018-04-19T17:12:20.601Z,101234.61
2018-04-19T17:14:48.388Z,101230.19
2018-04-19T17:17:16.120Z,101238.34
2018-04-19T17:19:43.892Z,101236.96
2018-04-19T17:22:12.479Z,101241.08
2018-04-19T17:24:40.288Z,101233.64
2018-04-19T17:27:08.106Z,101236.78
2018-04-19T17:29:35.937Z,101234.69
2018-04-19T17:32:03.840Z,101229.77
2018-04-19T17:34:31.539Z,101222.53
2018-04-19T17:36:59.266Z,101224.91
2018-04-19T17:39:27.134Z,101229.83
2018-04-19T17:41:54.857Z,101230.25
2018-04-19T17:44:22.631Z,101221.20
2018-04-19T17:46:50.326Z,101228.30
2018-04-19T17:49:17.978Z,101223.58
2018-04-19T17:51:45.697Z,101230.70
2018-04-19T17:54:13.520Z,101221.48
2018-04-19T17:56:41.385Z,101228.02
2018-04-19T17:59:09.109Z,101226.16
2018-04-19T18:01:36.919Z,101226.84
2018-04-19T18:04:04.675Z,101229.97
2018-04-19T18:06:32.367Z,101227.78
2018-04-19T18:08:59.979Z,101230.45
2018-04-19T18:11:27.628Z,101225.52
2018-04-19T18:13:55.234Z,101231.48
2018-04-19T18:16:22.912Z,101221.62
2018-04-19T18:18:50.579Z,101227.41
2018-04-19T18:21:18.412Z,101227.17
2018-04-19T18:23:46.075Z,101235.61
2018-04-19T18:26:13.831Z,101236.69
2018-04-19T18:28:41.552Z,101238.64
2018-04-19T18:31:09.275Z,101243.91
2018-04-19T18:33:37.135Z,101236.16
2018-04-19T18:36:04.897Z,101231.81
2018-04-19T18:38:32.764Z,101239.34
2018-04-19T18:41:00.529Z,101242.41
2018-04-19T18:43:28.400Z,101243.80
2018-04-19T18:45:56.124Z,101250.87
2018-04-19T18:48:23.925Z,101246.86
2018-04-19T18:50:51.690Z,101252.52
2018-04-19T18:53:20.114Z,101245.15
2018-04-19T18:55:47.889Z,101252.66
2018-04-19T18:58:15.703Z,101253.75
2018-04-19T19:00:43.465Z,101254.25
2018-04-19T19:03:11.354Z,101252.46
2018-04-19T19:05:39.097Z,101256.40
2018-04-19T19:08:06.862Z,101253.02
2018-04-19T19:10:34.620Z,101256.41
2018-04-19T19:13:02.393Z,101256.36
2018-04-19T19:18:57.887Z,101259.54
2018-04-19T19:21:25.653Z,101264.45
2018-04-19T19:23:53.545Z,101256.83
2018-04-19T19:26:21.493Z,101266.36
2018-04-19T19:28:49.376Z,101269.69
2018-04-19T19:31:17.182Z,101265.75
2018-04-19T19:33:44.998Z,101270.52
2018-04-19T19:36:12.869Z,101271.45
2018-04-19T19:38:40.731Z,101269.15
2018-04-19T19:41:08.603Z,101286.98
2018-04-19T19:43:36.672Z,101285.91
2018-04-19T19:46:04.402Z,101286.22
2018-04-19T19:48:32.102Z,101287.02
2018-04-19T19:50:59.939Z,101277.08
2018-04-19T19:53:27.737Z,101279.16
2018-04-19T19:55:55.519Z,101276.67
2018-04-19T19:58:23.478Z,101286.78
2018-04-19T20:00:51.237Z,101284.19
2018-04-19T20:03:19.004Z,101286.48
2018-04-19T20:05:46.937Z,101285.91
2018-04-19T20:08:14.745Z,101279.84
2018-04-19T20:10:42.576Z,101277.52
2018-04-19T20:13:10.378Z,101274.13
2018-04-19T20:15:38.207Z,101271.81
2018-04-19T20:18:06.020Z,101276.47
2018-04-19T20:20:33.880Z,101277.36
2018-04-19T20:23:01.608Z,101280.96
2018-04-19T20:25:29.411Z,101272.84
2018-04-19T20:27:57.141Z,101277.75
2018-04-19T20:30:24.947Z,101275.54
2018-04-19T20:32:52.776Z,101276.28
2018-04-19T20:35:20.684Z,101272.36
2018-04-19T20:37:48.444Z,101275.85
2018-04-19T20:40:16.316Z,101268.11
2018-04-19T20:42:44.078Z,101270.02
2018-04-19T20:45:11.948Z,101270.97
2018-04-19T20:47:39.676Z,101272.55
2018-04-19T20:50:07.387Z,101279.31
2018-04-19T20:52:35.115Z,101277.67
2018-04-19T20:55:02.807Z,101271.39
2018-04-19T20:57:30.469Z,101272.90
2018-04-19T20:59:58.176Z,101282.06
2018-04-19T21:02:25.828Z,101274.00
2018-04-19T21:04:53.596Z,101279.31
2018-04-19T21:07:21.251Z,101271.42
2018-04-19T21:09:48.979Z,101275.47
2018-04-19T21:12:16.669Z,101273.62
2018-04-19T21:14:44.389Z,101280.20
2018-04-19T21:17:12.088Z,101277.67
2018-04-19T21:19:39.841Z,101276.98
2018-04-19T21:22:07.498Z,101277.80
2018-04-19T21:24:35.213Z,101274.13
2018-04-19T21:27:02.951Z,101272.88
2018-04-19T21:29:30.673Z,101274.83
2018-04-19T21:31:58.308Z,101273.55
2018-04-19T21:34:26.005Z,101273.61
2018-04-19T21:36:53.669Z,101272.06
2018-04-19T21:39:21.316Z,101271.84
2018-04-19T21:41:49.001Z,101273.84
2018-04-19T21:44:16.640Z,101274.07
2018-04-19T21:46:44.364Z,101267.66
2018-04-19T21:49:12.010Z,101266.98
2018-04-19T21:51:39.729Z,101268.93
2018-04-19T21:54:07.375Z,101262.43
2018-04-19T21:56:35.097Z,101269.68
2018-04-19T21:59:02.781Z,101264.86
2018-04-19T22:01:30.476Z,101267.00
2018-04-19T22:03:58.113Z,101264.72
2018-04-19T22:06:25.791Z,101263.87
2018-04-19T22:08:53.504Z,101257.81
2018-04-19T22:11:21.202Z,101258.13
2018-04-19T22:13:48.871Z,101260.63
2018-04-19T22:16:16.541Z,101257.83
2018-04-19T22:18:44.205Z,101265.05
2018-04-19T22:21:11.873Z,101259.92
2018-04-19T22:23:40.770Z,101259.82
2018-04-19T22:26:08.487Z,101261.10
2018-04-19T22:28:36.162Z,101258.29
2018-04-19T22:31:03.871Z,101257.17
2018-04-19T22:33:31.535Z,101256.97
2018-04-19T22:35:59.234Z,101253.58
2018-04-19T22:38:26.892Z,101258.76
2018-04-19T22:40:54.614Z,101258.59
2018-04-19T22:43:28.733Z,101261.92
2018-04-19T22:45:56.484Z,101257.30
2018-04-19T22:48:24.147Z,101259.91
2018-04-19T22:50:51.999Z,101253.06
2018-04-19T22:53:39.711Z,101255.47
2018-04-19T22:56:07.610Z,101247.56
2018-04-19T22:58:35.256Z,101243.52
2018-04-19T23:01:02.973Z,101246.76
2018-04-19T23:03:30.639Z,101252.62
2018-04-19T23:05:58.320Z,101251.64
2018-04-19T23:08:26.007Z,101257.46
2018-04-19T23:10:53.722Z,101253.50
2018-04-19T23:13:21.404Z,101252.59
2018-04-19T23:15:49.108Z,101248.77
2018-04-19T23:18:16.761Z,101248.41
2018-04-19T23:20:44.491Z,101247.91
2018-04-19T23:23:12.161Z,101249.95
2018-04-19T23:25:39.898Z,101246.62
2018-04-19T23:28:07.527Z,101246.39
2018-04-19T23:30:35.302Z,101250.34
2018-04-19T23:33:02.998Z,101249.57
2018-04-19T23:35:30.701Z,101250.19
2018-04-19T23:37:58.360Z,101245.50
2018-04-19T23:40:26.058Z,101245.84
2018-04-19T23:42:53.721Z,101252.53
2018-04-19T23:45:21.449Z,101250.47
2018-04-19T23:47:49.082Z,101249.77
2018-04-19T23:50:16.809Z,101249.70
2018-04-19T23:52:44.460Z,101248.06
2018-04-19T23:55:12.165Z,101246.30
2018-04-19T23:57:39.852Z,101241.39
